Time;durP1;ratioP1;P1;durP2;ratioP2;P2;SDS_P1;SDS_P2;PMS_P1;PMS_P2;Temp;Humidity;BMP_temperature;BMP_pressure;BME280_temperature;BME280_humidity;BME280_pressure;Samples;Min_cycle;Max_cycle;Signal;HPM_P1;HPM_P2
2022/08/25 00:00:25;;;;;;;2.07;1.40;;;30.60;60.20;;;;;;5043469;27;86997;-48
2022/08/25 00:02:55;;;;;;;2.40;1.63;;;30.40;60.10;;;;;;5042508;28;89115;-48
2022/08/25 00:05:26;;;;;;;1.30;1.20;;;30.40;60.10;;;;;;5041296;28;89079;-49
2022/08/25 00:07:57;;;;;;;1.43;1.23;;;30.50;59.90;;;;;;5043670;27;87081;-49
2022/08/25 00:10:25;;;;;;;1.90;1.63;;;30.50;61.00;;;;;;5044797;27;86340;-48
2022/08/25 00:12:55;;;;;;;3.47;1.37;;;30.60;60.10;;;;;;5060703;27;89182;-49
2022/08/25 00:15:24;;;;;;;1.53;1.40;;;30.60;60.10;;;;;;5042547;28;88883;-48
2022/08/25 00:17:52;;;;;;;2.30;1.43;;;30.60;60.10;;;;;;5042238;28;88132;-48
2022/08/25 00:20:21;;;;;;;1.47;1.37;;;30.60;60.00;;;;;;5041994;28;87018;-48
2022/08/25 00:22:49;;;;;;;1.93;1.40;;;30.60;59.90;;;;;;5042661;28;89212;-49
2022/08/25 00:25:17;;;;;;;2.30;1.43;;;30.70;60.00;;;;;;5041849;28;88946;-49
2022/08/25 00:27:46;;;;;;;3.20;1.60;;;30.70;59.90;;;;;;5042261;28;87042;-49
2022/08/25 00:30:15;;;;;;;1.93;1.27;;;30.70;60.00;;;;;;5041839;28;89108;-49
2022/08/25 00:32:45;;;;;;;6.07;1.63;;;30.60;60.80;;;;;;5029717;28;89138;-48
2022/08/25 00:35:25;;;;;;;3.30;1.63;;;30.60;59.90;;;;;;5042533;27;88765;-49
2022/08/25 00:37:53;;;;;;;1.70;1.37;;;30.70;60.00;;;;;;5041850;27;87124;-48
2022/08/25 00:40:23;;;;;;;1.43;1.23;;;30.60;59.80;;;;;;5041658;27;87076;-48
2022/08/25 00:42:51;;;;;;;3.80;1.60;;;30.60;60.00;;;;;;5040921;27;88999;-49
2022/08/25 00:45:19;;;;;;;1.83;1.53;;;30.60;60.00;;;;;;5041911;27;89875;-48
2022/08/25 00:47:48;;;;;;;1.63;1.40;;;30.60;60.10;;;;;;5041786;27;87416;-49
2022/08/25 00:50:17;;;;;;;4.20;1.63;;;30.60;60.10;;;;;;5045272;27;87095;-48
2022/08/25 00:52:46;;;;;;;2.83;2.27;;;30.60;60.10;;;;;;5042166;28;89113;-48
2022/08/25 00:55:15;;;;;;;5.63;2.00;;;30.60;60.10;;;;;;5041641;28;88887;-48
2022/08/25 00:57:46;;;;;;;2.50;2.10;;;30.50;60.00;;;;;;5041746;27;87612;-48
2022/08/25 01:00:16;;;;;;;3.20;2.30;;;30.40;60.10;;;;;;5042189;27;86116;-49
2022/08/25 01:02:44;;;;;;;5.03;2.33;;;30.40;60.20;;;;;;5042021;27;89163;-48
2022/08/25 01:05:13;;;;;;;2.17;1.83;;;30.40;60.50;;;;;;5050477;27;91243;-49
2022/08/25 01:07:41;;;;;;;2.07;1.67;;;30.40;60.70;;;;;;5044017;27;87974;-48
2022/08/25 01:10:12;;;;;;;1.70;1.60;;;30.40;60.70;;;;;;5039919;28;87951;-48
2022/08/25 01:12:40;;;;;;;2.83;2.27;;;30.40;60.70;;;;;;5042596;28;88760;-48
2022/08/25 01:15:09;;;;;;;2.53;1.67;;;30.40;60.70;;;;;;5041596;28;88848;-48
2022/08/25 01:17:45;;;;;;;2.33;1.67;;;30.40;60.50;;;;;;5041726;28;87147;-48
2022/08/25 01:20:14;;;;;;;2.67;1.73;;;30.40;60.50;;;;;;5041055;28;87967;-48
2022/08/25 01:22:44;;;;;;;2.20;1.90;;;30.40;60.70;;;;;;5041307;28;89438;-48
2022/08/25 01:25:23;;;;;;;1.93;1.73;;;30.40;60.70;;;;;;5041562;28;88958;-48
2022/08/25 01:27:51;;;;;;;2.20;2.00;;;30.40;60.30;;;;;;5041736;28;86994;-48
2022/08/25 01:30:19;;;;;;;2.30;2.10;;;30.40;60.60;;;;;;5040989;28;87086;-48
2022/08/25 01:32:48;;;;;;;2.97;2.17;;;30.30;60.50;;;;;;5041038;28;90195;-48
2022/08/25 01:35:16;;;;;;;8.53;2.13;;;30.30;60.60;;;;;;5041644;28;89776;-48
2022/08/25 01:37:46;;;;;;;2.53;2.33;;;30.30;60.70;;;;;;5041349;28;87156;-48
2022/08/25 01:40:14;;;;;;;2.93;2.20;;;30.30;61.80;;;;;;5040435;27;87122;-48
2022/08/25 01:42:47;;;;;;;1.80;1.70;;;30.30;60.90;;;;;;5021485;28;89232;-48
2022/08/25 01:45:15;;;;;;;3.00;2.13;;;30.30;60.60;;;;;;5037044;28;88935;-48
2022/08/25 01:47:43;;;;;;;3.03;2.30;;;30.30;60.70;;;;;;5040399;28;86851;-48
2022/08/25 01:50:12;;;;;;;2.27;2.00;;;30.20;60.80;;;;;;5038870;28;86129;-48
2022/08/25 01:52:46;;;;;;;3.70;2.67;;;30.20;60.90;;;;;;5040310;28;89179;-48
2022/08/25 01:55:14;;;;;;;2.17;1.97;;;30.10;60.60;;;;;;5040854;28;88872;-48
2022/08/25 01:57:42;;;;;;;4.20;2.00;;;30.10;60.90;;;;;;5040650;28;88109;-48
2022/08/25 02:00:13;;;;;;;2.93;2.50;;;30.10;60.90;;;;;;5041255;28;87091;-48
2022/08/25 02:02:41;;;;;;;3.07;2.13;;;29.90;60.60;;;;;;5041307;28;89164;-48
2022/08/25 02:05:10;;;;;;;2.37;1.97;;;30.00;60.90;;;;;;5040924;28;88852;-48
2022/08/25 02:07:38;;;;;;;2.63;2.40;;;30.00;60.90;;;;;;5040927;28;87040;-48
2022/08/25 02:10:08;;;;;;;4.70;2.03;;;29.90;61.00;;;;;;5041219;28;87012;-49
2022/08/25 02:12:36;;;;;;;3.40;2.33;;;29.90;60.90;;;;;;5041133;28;89036;-48
2022/08/25 02:15:04;;;;;;;4.63;2.60;;;29.90;61.10;;;;;;5041011;28;88946;-49
2022/08/25 02:17:32;;;;;;;2.80;2.30;;;29.80;61.00;;;;;;5040635;28;87071;-48
2022/08/25 02:20:00;;;;;;;2.67;1.83;;;29.80;61.00;;;;;;5035044;28;86993;-49
2022/08/25 02:22:28;;;;;;;2.97;1.73;;;29.80;61.10;;;;;;5037144;28;90174;-48
2022/08/25 02:24:56;;;;;;;3.40;2.33;;;29.80;61.10;;;;;;5041337;28;89924;-48
2022/08/25 02:27:25;;;;;;;4.47;2.00;;;29.80;61.20;;;;;;5041378;28;87036;-48
2022/08/25 02:29:53;;;;;;;2.80;2.13;;;29.80;61.30;;;;;;5041134;28;87082;-48
2022/08/25 02:32:21;;;;;;;3.80;1.63;;;29.80;61.30;;;;;;5040802;28;88199;-48
2022/08/25 02:34:49;;;;;;;2.37;1.90;;;29.70;61.30;;;;;;5040877;28;88857;-48
2022/08/25 02:37:17;;;;;;;4.00;2.00;;;29.70;61.60;;;;;;5040987;28;87180;-48
2022/08/25 02:39:46;;;;;;;2.43;2.17;;;29.60;61.90;;;;;;5041341;28;86079;-48
2022/08/25 02:42:14;;;;;;;2.23;1.63;;;29.60;62.10;;;;;;5039947;28;89133;-48
2022/08/25 02:44:44;;;;;;;2.83;2.13;;;29.60;62.20;;;;;;5040432;28;88881;-48
2022/08/25 02:47:12;;;;;;;2.60;2.40;;;29.60;62.20;;;;;;5040537;28;87921;-49
2022/08/25 02:49:40;;;;;;;3.17;2.00;;;29.50;61.80;;;;;;5040590;28;87029;-48
2022/08/25 02:52:08;;;;;;;3.03;2.40;;;29.50;63.00;;;;;;5041177;28;88856;-48
2022/08/25 02:54:36;;;;;;;2.13;1.80;;;29.50;62.40;;;;;;5041825;28;88399;-48
2022/08/25 02:57:05;;;;;;;2.20;2.00;;;29.50;62.50;;;;;;5040443;28;86903;-48
2022/08/25 02:59:34;;;;;;;2.80;1.93;;;29.50;63.20;;;;;;5040875;28;86884;-48
2022/08/25 03:02:04;;;;;;;4.67;1.87;;;29.50;62.70;;;;;;5040681;28;89478;-48
2022/08/25 03:04:32;;;;;;;2.27;1.87;;;29.50;63.40;;;;;;5042257;27;88871;-48
2022/08/25 03:07:00;;;;;;;2.17;1.97;;;29.50;62.50;;;;;;5043548;28;86867;-48
2022/08/25 03:09:28;;;;;;;3.13;2.20;;;29.50;63.00;;;;;;5044120;28;86851;-48
2022/08/25 03:12:01;;;;;;;2.90;1.67;;;29.40;63.00;;;;;;5040876;27;88967;-48
2022/08/25 03:14:29;;;;;;;1.70;1.60;;;29.50;63.00;;;;;;5051110;27;89798;-48
2022/08/25 03:16:57;;;;;;;2.13;1.40;;;29.50;63.40;;;;;;5053624;27;87113;-48
2022/08/25 03:19:26;;;;;;;4.00;2.00;;;29.40;63.00;;;;;;5052632;27;87169;-49
2022/08/25 03:21:55;;;;;;;2.57;1.93;;;29.40;62.20;;;;;;5051876;27;88134;-48
2022/08/25 03:24:23;;;;;;;3.50;2.40;;;29.40;62.90;;;;;;5041350;27;88867;-48
2022/08/25 03:26:53;;;;;;;2.60;1.87;;;29.40;62.90;;;;;;5053258;27;87009;-48
2022/08/25 03:29:22;;;;;;;2.17;1.80;;;29.40;62.70;;;;;;5051853;27;86204;-48
2022/08/25 03:31:50;;;;;;;2.33;1.63;;;29.40;63.10;;;;;;5053756;27;89255;-48
2022/08/25 03:34:19;;;;;;;3.03;1.93;;;29.40;63.90;;;;;;5052600;27;87851;-48
2022/08/25 03:36:50;;;;;;;1.77;1.43;;;29.30;63.50;;;;;;5037012;28;87894;-47
2022/08/25 03:39:19;;;;;;;3.23;1.53;;;29.30;63.50;;;;;;5043265;28;88519;-48
2022/08/25 03:41:47;;;;;;;2.10;1.40;;;29.30;63.60;;;;;;5042531;28;89088;-48
2022/08/25 03:44:15;;;;;;;2.07;1.50;;;29.30;64.00;;;;;;5043478;28;88872;-48
2022/08/25 03:46:45;;;;;;;1.90;1.70;;;29.10;67.40;;;;;;5043947;28;87030;-48
2022/08/25 03:49:15;;;;;;;2.13;1.80;;;29.30;65.00;;;;;;5043783;28;86876;-48
2022/08/25 03:51:45;;;;;;;2.10;1.90;;;29.50;66.90;;;;;;5043113;28;87989;-48
2022/08/25 03:54:15;;;;;;;3.17;1.80;;;29.30;66.60;;;;;;5042969;28;88768;-48
2022/08/25 03:56:43;;;;;;;1.60;1.50;;;29.30;66.90;;;;;;5043568;28;86887;-48
2022/08/25 03:59:11;;;;;;;3.53;1.47;;;29.30;66.90;;;;;;5043593;28;86935;-48
2022/08/25 04:01:40;;;;;;;2.67;2.00;;;29.30;70.30;;;;;;5042796;28;90252;-48
2022/08/25 04:04:09;;;;;;;4.73;2.17;;;29.40;70.10;;;;;;5042487;28;88656;-48
2022/08/25 04:06:37;;;;;;;2.63;2.20;;;29.40;71.50;;;;;;5042869;28;87101;-48
2022/08/25 04:09:06;;;;;;;4.07;2.00;;;29.40;70.80;;;;;;5036716;28;87091;-48
2022/08/25 04:11:35;;;;;;;3.27;1.87;;;29.30;74.30;;;;;;5042691;28;89101;-48
2022/08/25 04:14:04;;;;;;;2.40;2.20;;;29.40;74.30;;;;;;5043041;28;88973;-48
2022/08/25 04:16:33;;;;;;;1.47;1.37;;;29.40;79.30;;;;;;5041826;28;87267;-48
2022/08/25 04:19:04;;;;;;;2.27;1.80;;;29.40;75.20;;;;;;5039913;28;87404;-48
2022/08/25 04:21:32;;;;;;;2.10;1.90;;;29.30;76.10;;;;;;5042054;28;89385;-48
2022/08/25 04:24:01;;;;;;;2.43;1.90;;;;;;;;;;5040421;28;88952;-49
2022/08/25 04:26:31;;;;;;;2.57;1.60;;;29.30;70.60;;;;;;5042350;28;87955;-48
2022/08/25 04:29:01;;;;;;;2.03;1.70;;;29.30;68.60;;;;;;5042648;28;87041;-48
2022/08/25 04:31:30;;;;;;;1.63;1.53;;;29.30;66.90;;;;;;5042759;28;89541;-48
2022/08/25 04:33:58;;;;;;;2.03;1.53;;;29.30;67.00;;;;;;5042320;28;88794;-49
2022/08/25 04:36:26;;;;;;;1.63;1.53;;;29.30;65.20;;;;;;5041524;28;87043;-49
2022/08/25 04:38:55;;;;;;;3.37;1.70;;;29.30;65.30;;;;;;5041686;28;87222;-49
2022/08/25 04:41:24;;;;;;;1.60;1.37;;;29.30;66.30;;;;;;5041267;27;89321;-48
2022/08/25 04:43:52;;;;;;;2.00;1.67;;;29.40;65.30;;;;;;5043225;28;88269;-49
2022/08/25 04:46:23;;;;;;;3.53;1.97;;;29.40;66.20;;;;;;5042175;28;87065;-49
2022/08/25 04:48:52;;;;;;;3.53;2.07;;;29.40;69.90;;;;;;5042583;28;87018;-48
2022/08/25 04:51:22;;;;;;;2.43;1.70;;;29.40;67.30;;;;;;5041819;28;90139;-49
2022/08/25 04:53:50;;;;;;;3.07;1.63;;;29.40;72.90;;;;;;5042125;28;89897;-48
2022/08/25 04:56:20;;;;;;;2.93;1.77;;;;;;;;;;5042364;28;87085;-48
2022/08/25 04:58:48;;;;;;;1.70;1.60;;;29.30;61.80;;;;;;5042040;28;86938;-48
2022/08/25 05:01:17;;;;;;;2.20;2.00;;;29.40;64.00;;;;;;5042364;28;90257;-48
2022/08/25 05:03:47;;;;;;;3.37;1.43;;;29.30;64.00;;;;;;5041630;28;88894;-47
2022/08/25 05:06:15;;;;;;;2.57;1.80;;;29.30;64.10;;;;;;5041281;28;86969;-47
2022/08/25 05:08:44;;;;;;;2.83;1.40;;;29.40;64.00;;;;;;5042192;28;87179;-47
2022/08/25 05:11:15;;;;;;;1.47;1.33;;;29.40;63.80;;;;;;5041798;28;89374;-47
2022/08/25 05:13:43;;;;;;;1.77;1.50;;;29.40;63.40;;;;;;5041116;28;88891;-48
2022/08/25 05:16:18;;;;;;;1.90;1.80;;;29.40;63.20;;;;;;5041212;28;87920;-48
2022/08/25 05:18:48;;;;;;;3.07;1.63;;;29.40;63.00;;;;;;5041275;28;87023;-48
2022/08/25 05:21:17;;;;;;;2.03;1.50;;;29.50;62.80;;;;;;5041954;28;89214;-48
2022/08/25 05:23:46;;;;;;;1.50;1.30;;;29.50;62.40;;;;;;5041679;28;88944;-48
2022/08/25 05:26:15;;;;;;;2.80;1.90;;;29.50;62.30;;;;;;5041925;28;87140;-48
2022/08/25 05:28:47;;;;;;;2.33;1.43;;;29.50;62.20;;;;;;5041543;28;87034;-48
2022/08/25 05:31:15;;;;;;;1.30;1.20;;;29.50;62.20;;;;;;5041602;28;87052;-48
2022/08/25 05:33:43;;;;;;;1.90;1.43;;;29.50;62.10;;;;;;5042069;28;91358;-48
2022/08/25 05:36:13;;;;;;;2.10;1.80;;;29.60;61.90;;;;;;5040891;28;87143;-48
2022/08/25 05:38:42;;;;;;;4.17;1.60;;;29.60;61.80;;;;;;5041781;28;87024;-48
2022/08/25 05:41:11;;;;;;;1.73;1.33;;;29.50;61.70;;;;;;5039555;28;90180;-48
2022/08/25 05:43:40;;;;;;;1.43;1.33;;;29.60;61.50;;;;;;5040951;28;89837;-48
2022/08/25 05:46:08;;;;;;;3.53;1.40;;;29.60;61.40;;;;;;5041723;28;86949;-48
2022/08/25 05:48:36;;;;;;;1.70;1.20;;;29.60;61.50;;;;;;5041526;27;87061;-48
2022/08/25 05:51:06;;;;;;;1.13;1.03;;;29.60;61.50;;;;;;5040767;28;89189;-48
2022/08/25 05:53:36;;;;;;;2.83;1.40;;;29.60;61.10;;;;;;5041068;28;88730;-48
2022/08/25 05:56:05;;;;;;;1.90;1.57;;;29.60;61.30;;;;;;5041892;28;87150;-48
2022/08/25 05:58:33;;;;;;;2.13;1.60;;;29.60;61.00;;;;;;5040467;27;86576;-48
2022/08/25 06:02:39;;;;;;;1.30;1.20;;;29.60;61.00;;;;;;5041404;28;89221;-48
2022/08/25 06:03:49;;;;;;;1.90;1.60;;;29.60;61.00;;;;;;5041037;28;88753;-48
2022/08/25 06:06:17;;;;;;;1.47;1.37;;;29.60;61.00;;;;;;5040394;28;88085;-48
2022/08/25 06:08:47;;;;;;;2.47;1.50;;;29.60;60.90;;;;;;5040877;28;87030;-48
2022/08/25 06:11:15;;;;;;;2.20;1.50;;;29.60;60.80;;;;;;5040448;28;89266;-48
2022/08/25 06:13:44;;;;;;;5.33;1.20;;;29.60;60.60;;;;;;5040096;28;89009;-48
2022/08/25 06:16:12;;;;;;;3.33;1.50;;;29.60;60.50;;;;;;5041117;28;88549;-48
2022/08/25 06:18:40;;;;;;;2.77;1.37;;;29.60;60.50;;;;;;5039742;28;88232;-49
2022/08/25 06:21:11;;;;;;;3.73;1.53;;;29.60;61.30;;;;;;5041058;28;88069;-48
2022/08/25 06:23:39;;;;;;;1.87;1.43;;;29.60;60.20;;;;;;5040664;28;87489;-48
2022/08/25 06:26:10;;;;;;;3.17;1.77;;;29.60;60.40;;;;;;5039468;28;87019;-48
2022/08/25 06:28:48;;;;;;;3.20;1.37;;;29.60;60.40;;;;;;5035138;27;87043;-49
2022/08/25 06:31:16;;;;;;;1.77;1.60;;;29.60;60.20;;;;;;5033409;28;90121;-49
2022/08/25 06:33:44;;;;;;;1.87;1.53;;;29.70;60.20;;;;;;5033268;28;89769;-48
2022/08/25 06:36:12;;;;;;;4.27;1.47;;;29.60;59.80;;;;;;5033582;28;88896;-48
2022/08/25 06:38:40;;;;;;;3.70;1.40;;;29.70;59.80;;;;;;5035512;27;87285;-48
2022/08/25 06:41:11;;;;;;;1.60;1.37;;;29.70;59.80;;;;;;5038751;27;89211;-48
2022/08/25 06:43:40;;;;;;;1.27;1.10;;;29.60;59.60;;;;;;5039563;28;87149;-48
2022/08/25 06:46:15;;;;;;;2.23;1.63;;;29.70;59.70;;;;;;5038230;27;88793;-48
2022/08/25 06:48:44;;;;;;;4.63;1.70;;;29.70;59.40;;;;;;5038707;28;86740;-49
2022/08/25 06:51:14;;;;;;;2.07;1.70;;;29.60;59.50;;;;;;5038323;28;89178;-48
2022/08/25 06:53:42;;;;;;;1.70;1.60;;;29.60;59.30;;;;;;5037687;27;90881;-49
2022/08/25 06:56:12;;;;;;;1.57;1.47;;;29.60;60.00;;;;;;5037650;28;87933;-48
2022/08/25 06:58:40;;;;;;;1.60;1.50;;;29.60;59.40;;;;;;5037639;28;89029;-49
2022/08/25 07:01:08;;;;;;;2.03;1.43;;;29.60;59.40;;;;;;5037523;28;89229;-49
2022/08/25 07:03:46;;;;;;;2.77;1.93;;;29.60;59.20;;;;;;5037798;28;88857;-48
2022/08/25 07:06:15;;;;;;;2.17;1.90;;;29.70;59.30;;;;;;5037203;28;87058;-48
2022/08/25 07:08:45;;;;;;;1.73;1.50;;;29.70;59.30;;;;;;5037563;27;88057;-48
2022/08/25 07:11:15;;;;;;;2.23;1.30;;;29.80;59.30;;;;;;5038081;28;89173;-51
2022/08/25 07:13:44;;;;;;;3.83;1.90;;;29.70;59.10;;;;;;5037581;28;88744;-48
2022/08/25 07:16:14;;;;;;;2.07;1.87;;;29.80;59.20;;;;;;5038853;28;87861;-49
2022/08/25 07:18:42;;;;;;;4.33;1.73;;;29.80;59.00;;;;;;5038618;28;88238;-49
2022/08/25 07:21:11;;;;;;;1.97;1.73;;;29.80;58.90;;;;;;5036312;28;90279;-49
2022/08/25 07:23:39;;;;;;;4.80;1.50;;;29.80;59.00;;;;;;5036841;27;89751;-48
2022/08/25 07:26:09;;;;;;;3.00;1.40;;;29.80;59.10;;;;;;5036546;28;87254;-48
2022/08/25 07:28:59;;;;;;;1.60;1.20;;;29.80;58.90;;;;;;5037937;28;88896;-48
2022/08/25 07:31:27;;;;;;;2.60;1.60;;;29.80;58.90;;;;;;5038526;28;89043;-48
2022/08/25 07:36:43;;;;;;;2.00;1.50;;;29.80;58.90;;;;;;5042839;28;87470;-49
2022/08/25 07:39:11;;;;;;;3.83;1.53;;;29.80;59.10;;;;;;5042983;28;86432;-49
2022/08/25 07:41:42;;;;;;;2.87;1.30;;;29.80;59.10;;;;;;5042798;28;89186;-49
2022/08/25 07:44:11;;;;;;;1.57;1.47;;;29.90;58.90;;;;;;5043166;28;88808;-49
2022/08/25 07:46:39;;;;;;;2.53;1.30;;;29.80;59.00;;;;;;5043131;28;87879;-49
2022/08/25 07:49:09;;;;;;;1.50;1.40;;;29.90;59.00;;;;;;5041845;28;87001;-51
2022/08/25 07:51:43;;;;;;;1.83;1.30;;;29.90;59.00;;;;;;5042469;28;88804;-49
2022/08/25 07:54:32;;;;;;;2.50;1.60;;;30.00;59.10;;;;;;5042001;27;90648;-49
2022/08/25 07:57:01;;;;;;;2.73;1.40;;;30.00;58.90;;;;;;5040385;28;87184;-50
2022/08/25 07:59:33;;;;;;;2.20;1.30;;;30.10;59.10;;;;;;5041354;28;87027;-52
2022/08/25 08:02:08;;;;;;;1.83;1.47;;;30.10;59.10;;;;;;5043230;28;89080;-50
2022/08/25 08:04:47;;;;;;;1.80;1.60;;;30.20;58.90;;;;;;5042810;28;88739;-49
2022/08/25 08:07:16;;;;;;;1.90;1.40;;;30.20;59.10;;;;;;5046325;27;87223;-49
2022/08/25 08:09:44;;;;;;;1.60;1.17;;;30.20;58.90;;;;;;5043759;27;89031;-49
2022/08/25 08:12:12;;;;;;;5.30;1.47;;;30.20;59.10;;;;;;5041710;28;90153;-49
2022/08/25 08:14:43;;;;;;;2.30;1.27;;;30.30;59.20;;;;;;5033521;28;89949;-49
2022/08/25 08:17:12;;;;;;;2.67;1.30;;;30.30;59.10;;;;;;5028215;28;87416;-49
2022/08/25 08:19:42;;;;;;;1.30;1.20;;;30.30;59.80;;;;;;5042184;28;87063;-49
2022/08/25 08:22:14;;;;;;;2.93;1.57;;;30.30;58.90;;;;;;5040928;28;89131;-49
2022/08/25 08:24:43;;;;;;;1.33;1.00;;;30.40;58.80;;;;;;5032567;28;88877;-48
2022/08/25 08:27:23;;;;;;;3.60;1.70;;;30.40;59.20;;;;;;5037462;28;86966;-48
2022/08/25 08:29:53;;;;;;;1.50;1.40;;;30.40;58.50;;;;;;5032711;28;87866;-49
2022/08/25 08:32:21;;;;;;;6.93;1.50;;;30.40;58.30;;;;;;5042679;28;89115;-50
2022/08/25 08:35:00;;;;;;;2.47;1.17;;;30.40;58.30;;;;;;5042195;28;88428;-56
2022/08/25 08:37:28;;;;;;;2.07;1.50;;;30.40;58.10;;;;;;5041702;28;89611;-49
2022/08/25 08:40:00;;;;;;;1.73;1.10;;;30.50;58.60;;;;;;5042301;28;87133;-49
2022/08/25 08:42:51;;;;;;;1.33;1.23;;;30.50;58.00;;;;;;5042687;28;88994;-49
2022/08/25 08:45:27;;;;;;;3.03;1.13;;;30.40;57.50;;;;;;5037868;28;88822;-49
2022/08/25 08:48:06;;;;;;;1.57;1.20;;;30.50;57.40;;;;;;5037915;28;87094;-49
2022/08/25 08:50:39;;;;;;;0.80;0.80;;;30.50;57.10;;;;;;5040383;28;86993;-49
2022/08/25 08:53:10;;;;;;;2.83;1.30;;;30.50;57.10;;;;;;5029176;28;89298;-49
2022/08/25 08:55:40;;;;;;;4.30;1.03;;;30.60;57.20;;;;;;5041641;28;88975;-49
2022/08/25 08:58:12;;;;;;;1.90;1.20;;;30.60;57.10;;;;;;5031617;28;87062;-49
2022/08/25 09:00:46;;;;;;;1.53;1.43;;;30.60;57.00;;;;;;5040979;28;87001;-49
2022/08/25 09:03:27;;;;;;;1.13;1.03;;;30.60;57.00;;;;;;5039947;28;89875;-49
2022/08/25 09:05:56;;;;;;;2.87;1.00;;;30.70;57.20;;;;;;5041108;28;89657;-49
2022/08/25 09:08:25;;;;;;;1.50;1.10;;;30.70;57.10;;;;;;5041566;28;87156;-50
2022/08/25 09:11:01;;;;;;;0.90;0.90;;;30.70;57.40;;;;;;5041481;28;86969;-51
2022/08/25 09:13:36;;;;;;;2.93;1.27;;;30.70;57.20;;;;;;5041067;28;87990;-52
2022/08/25 09:19:08;;;;;;;1.70;1.20;;;30.80;56.80;;;;;;5020638;28;87437;-53
2022/08/25 09:21:39;;;;;;;1.23;1.00;;;30.80;56.80;;;;;;5037679;28;86300;-51
2022/08/25 09:24:23;;;;;;;1.23;1.10;;;30.70;56.70;;;;;;5040183;28;88234;-50
2022/08/25 09:26:57;;;;;;;1.50;1.30;;;30.80;56.60;;;;;;5040871;28;88852;-50
2022/08/25 09:29:28;;;;;;;3.13;1.27;;;30.80;56.50;;;;;;5041318;28;87925;-51
2022/08/25 09:31:58;;;;;;;1.23;1.13;;;30.90;57.30;;;;;;5041565;28;87023;-51
2022/08/25 09:34:32;;;;;;;3.83;1.47;;;30.90;56.80;;;;;;5042017;28;89298;-51
2022/08/25 09:37:01;;;;;;;2.10;1.47;;;30.90;56.70;;;;;;5035251;28;88924;-50
2022/08/25 09:39:29;;;;;;;4.90;0.93;;;30.90;56.40;;;;;;5040675;27;86968;-50
2022/08/25 09:41:59;;;;;;;3.00;0.90;;;30.90;56.50;;;;;;5041447;28;87289;-50
2022/08/25 09:44:33;;;;;;;2.70;1.47;;;30.90;56.40;;;;;;5041519;28;89131;-50
2022/08/25 09:47:04;;;;;;;1.40;1.30;;;30.90;56.20;;;;;;5042068;28;88920;-50
2022/08/25 09:49:39;;;;;;;4.73;1.03;;;30.90;56.10;;;;;;5041780;28;86990;-52
2022/08/25 09:52:31;;;;;;;7.73;1.43;;;30.90;56.00;;;;;;5040430;28;87107;-50
2022/08/25 09:55:01;;;;;;;1.23;1.13;;;30.90;56.50;;;;;;5039498;28;90112;-51
2022/08/25 09:57:31;;;;;;;2.97;2.00;;;30.90;56.20;;;;;;5040869;28;90085;-53
2022/08/25 10:00:18;;;;;;;3.43;2.00;;;30.90;56.00;;;;;;5040739;28;87032;-50
2022/08/25 10:03:03;;;;;;;1.83;1.53;;;31.00;56.10;;;;;;5040688;28;87108;-50
2022/08/25 10:05:35;;;;;;;1.53;1.27;;;31.10;56.00;;;;;;5040961;28;89104;-51
2022/08/25 10:08:10;;;;;;;1.47;1.27;;;31.10;55.80;;;;;;5022943;28;88895;-50
2022/08/25 10:10:44;;;;;;;1.47;1.07;;;31.10;55.70;;;;;;5039961;28;87972;-50
2022/08/25 10:13:14;;;;;;;2.87;1.33;;;31.20;55.50;;;;;;5043949;28;86294;-50
2022/08/25 10:15:42;;;;;;;1.37;1.20;;;31.20;55.40;;;;;;5045166;28;89276;-50
2022/08/25 10:18:24;;;;;;;2.87;1.30;;;31.30;55.50;;;;;;5044805;28;88772;-50
2022/08/25 10:21:03;;;;;;;2.70;1.30;;;31.20;55.20;;;;;;5044554;28;87720;-50
2022/08/25 10:23:36;;;;;;;2.93;1.50;;;31.30;55.20;;;;;;5024767;28;87039;-50
2022/08/25 10:26:08;;;;;;;1.50;1.20;;;31.20;55.10;;;;;;5024810;28;89213;-50
2022/08/25 10:28:42;;;;;;;1.47;1.27;;;31.30;55.10;;;;;;5041151;28;88779;-50
2022/08/25 10:31:15;;;;;;;1.50;1.30;;;31.30;55.00;;;;;;5044871;28;87136;-50
2022/08/25 10:33:51;;;;;;;5.40;1.23;;;31.30;55.00;;;;;;5044989;28;87158;-50
2022/08/25 10:36:21;;;;;;;3.43;1.00;;;31.30;54.70;;;;;;5044309;28;89610;-51
2022/08/25 10:38:51;;;;;;;1.03;0.90;;;31.40;54.80;;;;;;5044896;28;88815;-50
2022/08/25 10:41:28;;;;;;;2.63;1.20;;;31.40;54.60;;;;;;5044034;28;86853;-50
2022/08/25 10:44:01;;;;;;;3.03;1.37;;;31.50;54.60;;;;;;5044615;28;87010;-50
2022/08/25 10:46:32;;;;;;;1.53;1.30;;;31.50;54.40;;;;;;5044075;28;89914;-50
2022/08/25 10:49:04;;;;;;;1.30;1.20;;;31.50;54.50;;;;;;5044565;28;89837;-51
2022/08/25 10:51:38;;;;;;;3.03;1.43;;;31.50;54.20;;;;;;5044863;28;86760;-51
2022/08/25 10:54:12;;;;;;;1.67;1.23;;;31.60;54.30;;;;;;5044675;28;87010;-51
2022/08/25 10:56:41;;;;;;;1.53;1.10;;;31.60;54.10;;;;;;5044423;28;88522;-50
2022/08/25 10:59:16;;;;;;;2.20;1.00;;;31.60;54.20;;;;;;5044172;28;89002;-51
2022/08/25 11:02:00;;;;;;;1.77;1.67;;;31.70;54.00;;;;;;5044787;28;87170;-51
2022/08/25 11:04:32;;;;;;;2.30;2.00;;;31.60;53.90;;;;;;5043694;28;86225;-51
2022/08/25 11:07:04;;;;;;;2.93;1.83;;;31.70;54.00;;;;;;5043420;28;87854;-51
2022/08/25 11:09:37;;;;;;;2.13;1.80;;;31.70;53.80;;;;;;5044400;28;88755;-51
2022/08/25 11:12:09;;;;;;;2.27;1.70;;;31.80;53.70;;;;;;5043147;28;88041;-51
2022/08/25 11:14:38;;;;;;;2.73;1.43;;;31.80;53.60;;;;;;5043341;28;87031;-51
2022/08/25 11:17:10;;;;;;;1.40;1.20;;;31.80;53.50;;;;;;5043975;28;89071;-50
2022/08/25 11:19:41;;;;;;;1.83;1.20;;;31.90;53.50;;;;;;5043304;28;88940;-50
2022/08/25 11:22:15;;;;;;;1.10;1.00;;;31.90;53.50;;;;;;5043665;28;87580;-51
2022/08/25 11:25:02;;;;;;;2.30;1.63;;;31.80;54.00;;;;;;5042160;27;88091;-51
2022/08/25 11:27:32;;;;;;;2.80;1.40;;;31.80;53.50;;;;;;5043681;28;89212;-50
2022/08/25 11:30:05;;;;;;;4.10;1.10;;;31.90;53.60;;;;;;5044012;28;88708;-50
2022/08/25 11:32:34;;;;;;;2.83;2.30;;;31.90;53.40;;;;;;5043845;28;87110;-50
2022/08/25 11:35:05;;;;;;;4.90;2.73;;;31.80;53.20;;;;;;5043863;27;87047;-51
2022/08/25 11:37:34;;;;;;;5.70;3.47;;;31.90;53.80;;;;;;5041142;28;90020;-51
2022/08/25 11:40:19;;;;;;;8.33;4.40;;;31.90;53.20;;;;;;5042852;28;89834;-50
2022/08/25 11:42:57;;;;;;;3.87;2.87;;;31.90;53.10;;;;;;5043424;28;87075;-50
2022/08/25 11:45:46;;;;;;;4.63;3.03;;;31.90;52.90;;;;;;5043449;28;86994;-50
2022/08/25 11:48:27;;;;;;;2.77;1.83;;;31.90;52.80;;;;;;5042785;28;89297;-50
2022/08/25 11:51:00;;;;;;;3.30;2.73;;;32.00;52.70;;;;;;5043611;28;88743;-50
2022/08/25 11:53:29;;;;;;;2.67;1.83;;;32.00;52.60;;;;;;5043675;28;86993;-50
2022/08/25 11:56:01;;;;;;;1.70;1.60;;;32.10;52.80;;;;;;5033809;28;86290;-50
2022/08/25 11:58:34;;;;;;;1.20;1.10;;;32.10;53.30;;;;;;5022603;28;89228;-50
2022/08/25 12:01:02;;;;;;;1.83;1.37;;;32.10;53.50;;;;;;5023003;28;88965;-50
2022/08/25 12:04:12;;;;;;;3.20;1.20;;;32.20;53.50;;;;;;5022994;28;87704;-51
2022/08/25 12:07:16;;;;;;;3.20;1.50;;;32.20;53.90;;;;;;4941020;28;87644;-50
2022/08/25 12:10:19;;;;;;;4.00;1.40;;;32.20;53.70;;;;;;5042487;28;89101;-50
2022/08/25 12:13:24;;;;;;;1.77;1.60;;;32.30;53.80;;;;;;5043037;28;88918;-51
2022/08/25 12:15:57;;;;;;;3.57;1.23;;;32.30;54.00;;;;;;5000815;28;86941;-51
2022/08/25 12:18:43;;;;;;;2.27;1.30;;;32.30;54.60;;;;;;5043141;28;86926;-52
2022/08/25 12:21:14;;;;;;;1.87;1.63;;;32.30;55.10;;;;;;5041069;27;89435;-50
2022/08/25 12:23:44;;;;;;;1.30;1.20;;;32.30;54.20;;;;;;5043208;28;88777;-50
2022/08/25 12:26:23;;;;;;;2.07;1.20;;;32.40;56.00;;;;;;5042077;28;86861;-50
2022/08/25 12:29:01;;;;;;;1.37;1.10;;;32.40;56.10;;;;;;5041696;28;86969;-50
2022/08/25 12:31:50;;;;;;;1.77;1.50;;;32.50;57.00;;;;;;5042166;28;89995;-50
2022/08/25 12:34:38;;;;;;;1.90;1.40;;;32.50;58.00;;;;;;5042093;28;87705;-50
2022/08/25 12:37:12;;;;;;;2.00;1.53;;;32.50;60.90;;;;;;5036537;28;86914;-50
2022/08/25 12:39:45;;;;;;;4.40;1.27;;;32.50;63.80;;;;;;5042269;28;87050;-51
2022/08/25 12:42:23;;;;;;;2.50;1.80;;;32.60;65.60;;;;;;5041557;28;89242;-50
2022/08/25 12:45:10;;;;;;;1.93;1.47;;;32.70;67.50;;;;;;5042274;28;88838;-50
2022/08/25 12:47:38;;;;;;;1.53;1.30;;;32.60;64.40;;;;;;5042551;28;86980;-50
2022/08/25 12:50:35;;;;;;;2.67;1.53;;;32.70;63.20;;;;;;5042930;28;86121;-50
2022/08/25 12:53:14;;;;;;;1.30;1.20;;;32.70;60.60;;;;;;5041431;28;89187;-50
2022/08/25 12:55:46;;;;;;;1.73;1.63;;;32.70;55.70;;;;;;5041360;28;90511;-50
2022/08/25 12:58:16;;;;;;;1.13;1.03;;;32.70;56.50;;;;;;5041697;28;87829;-50
2022/08/25 13:01:06;;;;;;;2.90;1.20;;;32.80;60.30;;;;;;5042291;28;86921;-50
2022/08/25 13:04:06;;;;;;;2.00;1.23;;;32.80;58.60;;;;;;5041316;28;89548;-50
2022/08/25 13:06:54;;;;;;;2.27;1.47;;;32.90;58.00;;;;;;5042268;28;88832;-50
2022/08/25 13:09:58;;;;;;;4.20;1.00;;;32.90;57.80;;;;;;5042114;28;87057;-50
2022/08/25 13:12:29;;;;;;;1.30;1.10;;;32.90;54.10;;;;;;5042155;28;86859;-50
2022/08/25 13:14:59;;;;;;;2.37;1.20;;;33.00;54.80;;;;;;5042165;28;88035;-51
2022/08/25 13:17:33;;;;;;;1.23;1.10;;;32.90;54.40;;;;;;5042517;28;88909;-51